sensor_id;sensor_type;location;lat;lon;timestamp;pressure;altitude;pressure_sealevel;temperature;humidity
69630;BME280;56857;52.212;5.496;2022-12-18T00:02:39;102904.31;;;-3.66;100.00
69630;BME280;56857;52.212;5.496;2022-12-18T00:05:55;102887.97;;;-3.68;100.00
69630;BME280;56857;52.212;5.496;2022-12-18T00:08:42;102887.00;;;-3.64;100.00
69630;BME280;56857;52.212;5.496;2022-12-18T00:11:47;102892.16;;;-3.63;100.00
69630;BME280;56857;52.212;5.496;2022-12-18T00:14:37;102885.31;;;-3.65;100.00
69630;BME280;56857;52.212;5.496;2022-12-18T00:17:45;102888.81;;;-3.69;100.00
69630;BME280;56857;52.212;5.496;2022-12-18T00:20:50;102879.41;;;-3.74;100.00
69630;BME280;56857;52.212;5.496;2022-12-18T00:24:02;102870.78;;;-3.74;100.00
69630;BME280;56857;52.212;5.496;2022-12-18T00:26:48;102867.44;;;-3.81;100.00
69630;BME280;56857;52.212;5.496;2022-12-18T00:29:30;102869.25;;;-3.86;100.00
69630;BME280;56857;52.212;5.496;2022-12-18T00:32:20;102875.31;;;-3.88;100.00
69630;BME280;56857;52.212;5.496;2022-12-18T00:35:10;102881.56;;;-3.99;100.00
69630;BME280;56857;52.212;5.496;2022-12-18T00:43:53;102876.22;;;-3.91;100.00
69630;BME280;56857;52.212;5.496;2022-12-18T00:46:42;102871.13;;;-3.94;100.00
69630;BME280;56857;52.212;5.496;2022-12-18T00:49:47;102872.88;;;-3.98;100.00
69630;BME280;56857;52.212;5.496;2022-12-18T00:52:40;102876.41;;;-4.00;100.00
69630;BME280;56857;52.212;5.496;2022-12-18T00:55:12;102879.00;;;-4.00;100.00
69630;BME280;56857;52.212;5.496;2022-12-18T00:58:00;102878.94;;;-3.97;100.00
69630;BME280;56857;52.212;5.496;2022-12-18T01:00:30;102872.88;;;-3.98;100.00
69630;BME280;56857;52.212;5.496;2022-12-18T01:03:00;102873.81;;;-4.00;100.00
69630;BME280;56857;52.212;5.496;2022-12-18T01:05:53;102873.03;;;-4.05;100.00
69630;BME280;56857;52.212;5.496;2022-12-18T01:08:39;102863.56;;;-4.06;100.00
69630;BME280;56857;52.212;5.496;2022-12-18T01:11:35;102864.47;;;-4.10;100.00
69630;BME280;56857;52.212;5.496;2022-12-18T01:14:34;102865.34;;;-4.11;100.00
69630;BME280;56857;52.212;5.496;2022-12-18T01:17:23;102859.34;;;-4.13;100.00
69630;BME280;56857;52.212;5.496;2022-12-18T01:20:11;102866.31;;;-4.17;100.00
69630;BME280;56857;52.212;5.496;2022-12-18T01:23:00;102875.81;;;-4.17;100.00
69630;BME280;56857;52.212;5.496;2022-12-18T01:27:58;102885.28;;;-4.15;100.00
69630;BME280;56857;52.212;5.496;2022-12-18T01:30:54;102882.66;;;-4.13;100.00
69630;BME280;56857;52.212;5.496;2022-12-18T01:33:41;102881.75;;;-4.11;100.00
69630;BME280;56857;52.212;5.496;2022-12-18T01:36:21;102881.78;;;-4.12;100.00
69630;BME280;56857;52.212;5.496;2022-12-18T01:38:55;102888.72;;;-4.13;100.00
69630;BME280;56857;52.212;5.496;2022-12-18T01:41:51;102885.22;;;-4.12;100.00
69630;BME280;56857;52.212;5.496;2022-12-18T01:48:02;102887.03;;;-4.17;100.00
69630;BME280;56857;52.212;5.496;2022-12-18T02:02:01;102891.59;;;-4.33;100.00
69630;BME280;56857;52.212;5.496;2022-12-18T02:04:32;102894.25;;;-4.37;100.00
69630;BME280;56857;52.212;5.496;2022-12-18T02:07:16;102893.41;;;-4.38;100.00
69630;BME280;56857;52.212;5.496;2022-12-18T02:12:45;102906.22;;;-4.30;100.00
69630;BME280;56857;52.212;5.496;2022-12-18T02:15:38;102902.75;;;-4.29;100.00
69630;BME280;56857;52.212;5.496;2022-12-18T02:18:33;102893.41;;;-4.38;100.00
69630;BME280;56857;52.212;5.496;2022-12-18T02:28:43;102907.38;;;-4.50;100.00
69630;BME280;56857;52.212;5.496;2022-12-18T02:31:42;102909.06;;;-4.49;100.00
69630;BME280;56857;52.212;5.496;2022-12-18T02:34:28;102914.22;;;-4.46;100.00
69630;BME280;56857;52.212;5.496;2022-12-18T02:37:00;102904.66;;;-4.42;100.00
69630;BME280;56857;52.212;5.496;2022-12-18T02:39:32;102901.22;;;-4.41;100.00
69630;BME280;56857;52.212;5.496;2022-12-18T02:42:02;102904.56;;;-4.36;100.00
69630;BME280;56857;52.212;5.496;2022-12-18T02:44:54;102896.72;;;-4.30;100.00
69630;BME280;56857;52.212;5.496;2022-12-18T02:47:43;102890.59;;;-4.24;100.00
69630;BME280;56857;52.212;5.496;2022-12-18T02:50:48;102887.16;;;-4.25;100.00
69630;BME280;56857;52.212;5.496;2022-12-18T02:59:00;102880.47;;;-4.38;100.00
69630;BME280;56857;52.212;5.496;2022-12-18T03:01:55;102877.88;;;-4.39;100.00
69630;BME280;56857;52.212;5.496;2022-12-18T03:07:18;102862.53;;;-4.52;100.00
69630;BME280;56857;52.212;5.496;2022-12-18T03:09:51;102868.66;;;-4.57;100.00
69630;BME280;56857;52.212;5.496;2022-12-18T03:12:42;102870.38;;;-4.58;99.97
69630;BME280;56857;52.212;5.496;2022-12-18T03:15:27;102865.13;;;-4.52;100.00
69630;BME280;56857;52.212;5.496;2022-12-18T03:18:30;102861.59;;;-4.48;99.93
69630;BME280;56857;52.212;5.496;2022-12-18T03:21:33;102863.28;;;-4.45;99.55
69630;BME280;56857;52.212;5.496;2022-12-18T03:26:34;102853.75;;;-4.42;99.06
69630;BME280;56857;52.212;5.496;2022-12-18T03:29:11;102856.31;;;-4.42;99.26
69630;BME280;56857;52.212;5.496;2022-12-18T03:31:48;102849.41;;;-4.39;99.09
69630;BME280;56857;52.212;5.496;2022-12-18T03:34:26;102847.63;;;-4.36;98.78
69630;BME280;56857;52.212;5.496;2022-12-18T03:36:58;102848.47;;;-4.34;98.96
69630;BME280;56857;52.212;5.496;2022-12-18T03:39:28;102841.53;;;-4.33;98.51
69630;BME280;56857;52.212;5.496;2022-12-18T03:42:27;102832.94;;;-4.34;98.37
69630;BME280;56857;52.212;5.496;2022-12-18T03:46:00;102837.22;;;-4.33;98.16
69630;BME280;56857;52.212;5.496;2022-12-18T03:56:07;102833.91;;;-4.43;97.62
69630;BME280;56857;52.212;5.496;2022-12-18T03:58:48;102824.56;;;-4.51;97.52
69630;BME280;56857;52.212;5.496;2022-12-18T04:01:34;102822.00;;;-4.54;97.58
69630;BME280;56857;52.212;5.496;2022-12-18T04:04:08;102822.09;;;-4.59;97.72
69630;BME280;56857;52.212;5.496;2022-12-18T04:06:41;102823.88;;;-4.64;97.61
69630;BME280;56857;52.212;5.496;2022-12-18T04:09:11;102817.91;;;-4.66;97.17
69630;BME280;56857;52.212;5.496;2022-12-18T04:11:47;102819.59;;;-4.65;97.11
69630;BME280;56857;52.212;5.496;2022-12-18T04:14:14;102817.06;;;-4.68;97.00
69630;BME280;56857;52.212;5.496;2022-12-18T04:16:46;102813.75;;;-4.78;97.28
69630;BME280;56857;52.212;5.496;2022-12-18T04:19:39;102801.78;;;-4.86;96.79
69630;BME280;56857;52.212;5.496;2022-12-18T04:22:08;102799.34;;;-4.94;96.88
69630;BME280;56857;52.212;5.496;2022-12-18T04:24:39;102802.00;;;-5.00;96.84
69630;BME280;56857;52.212;5.496;2022-12-18T04:27:30;102796.88;;;-5.05;96.45
69630;BME280;56857;52.212;5.496;2022-12-18T04:30:20;102795.25;;;-5.10;96.55
69630;BME280;56857;52.212;5.496;2022-12-18T04:32:54;102790.13;;;-5.15;96.21
69630;BME280;56857;52.212;5.496;2022-12-18T04:35:43;102791.06;;;-5.21;96.38
69630;BME280;56857;52.212;5.496;2022-12-18T04:38:36;102785.97;;;-5.25;96.30
69630;BME280;56857;52.212;5.496;2022-12-18T04:41:13;102791.97;;;-5.25;96.20
69630;BME280;56857;52.212;5.496;2022-12-18T04:43:44;102801.47;;;-5.27;96.32
69630;BME280;56857;52.212;5.496;2022-12-18T04:46:11;102800.66;;;-5.30;96.08
69630;BME280;56857;52.212;5.496;2022-12-18T04:48:45;102800.69;;;-5.32;95.98
69630;BME280;56857;52.212;5.496;2022-12-18T04:51:12;102807.59;;;-5.32;96.07
69630;BME280;56857;52.212;5.496;2022-12-18T04:53:45;102811.94;;;-5.36;95.81
69630;BME280;56857;52.212;5.496;2022-12-18T05:07:38;102834.44;;;-5.44;95.79
69630;BME280;56857;52.212;5.496;2022-12-18T05:10:13;102844.72;;;-5.38;95.62
69630;BME280;56857;52.212;5.496;2022-12-18T05:12:41;102851.50;;;-5.29;95.94
69630;BME280;56857;52.212;5.496;2022-12-18T05:15:14;102856.66;;;-5.26;95.86
69630;BME280;56857;52.212;5.496;2022-12-18T05:17:46;102855.75;;;-5.25;95.51
69630;BME280;56857;52.212;5.496;2022-12-18T05:20:18;102853.19;;;-5.27;95.61
69630;BME280;56857;52.212;5.496;2022-12-18T05:22:52;102858.41;;;-5.31;95.41
69630;BME280;56857;52.212;5.496;2022-12-18T05:25:21;102866.22;;;-5.36;94.98
69630;BME280;56857;52.212;5.496;2022-12-18T05:28:17;102868.00;;;-5.41;95.16
69630;BME280;56857;52.212;5.496;2022-12-18T05:30:57;102877.47;;;-5.40;95.10
69630;BME280;56857;52.212;5.496;2022-12-18T05:33:32;102880.84;;;-5.33;95.40
69630;BME280;56857;52.212;5.496;2022-12-18T05:36:09;102882.50;;;-5.28;95.47
69630;BME280;56857;52.212;5.496;2022-12-18T05:38:51;102878.16;;;-5.23;95.31
69630;BME280;56857;52.212;5.496;2022-12-18T05:41:46;102868.63;;;-5.21;95.03
69630;BME280;56857;52.212;5.496;2022-12-18T05:44:27;102862.56;;;-5.17;95.07
69630;BME280;56857;52.212;5.496;2022-12-18T05:47:07;102852.19;;;-5.14;94.73
69630;BME280;56857;52.212;5.496;2022-12-18T05:49:35;102845.28;;;-5.13;95.09
69630;BME280;56857;52.212;5.496;2022-12-18T05:52:08;102848.72;;;-5.13;94.57
69630;BME280;56857;52.212;5.496;2022-12-18T05:54:35;102851.28;;;-5.13;94.74
69630;BME280;56857;52.212;5.496;2022-12-18T05:57:11;102847.81;;;-5.10;94.57
69630;BME280;56857;52.212;5.496;2022-12-18T05:59:51;102837.44;;;-5.08;94.87
69630;BME280;56857;52.212;5.496;2022-12-18T06:02:23;102837.44;;;-5.07;94.51
69630;BME280;56857;52.212;5.496;2022-12-18T06:05:01;102828.84;;;-5.07;94.26
69630;BME280;56857;52.212;5.496;2022-12-18T06:07:33;102823.66;;;-5.07;94.31
69630;BME280;56857;52.212;5.496;2022-12-18T06:10:28;102825.34;;;-5.06;94.10
69630;BME280;56857;52.212;5.496;2022-12-18T06:13:17;102820.19;;;-5.06;94.22
69630;BME280;56857;52.212;5.496;2022-12-18T06:15:46;102827.06;;;-5.05;94.10
69630;BME280;56857;52.212;5.496;2022-12-18T06:18:15;102824.50;;;-5.07;94.18
69630;BME280;56857;52.212;5.496;2022-12-18T06:20:59;102820.22;;;-5.09;93.82
69630;BME280;56857;52.212;5.496;2022-12-18T06:23:30;102821.13;;;-5.10;94.00
69630;BME280;56857;52.212;5.496;2022-12-18T06:26:17;102816.78;;;-5.12;93.89
69630;BME280;56857;52.212;5.496;2022-12-18T06:28:57;102811.66;;;-5.13;93.57
69630;BME280;56857;52.212;5.496;2022-12-18T06:31:44;102813.34;;;-5.12;93.56
69630;BME280;56857;52.212;5.496;2022-12-18T06:34:18;102812.47;;;-5.09;93.59
69630;BME280;56857;52.212;5.496;2022-12-18T06:36:51;102802.13;;;-5.09;93.63
69630;BME280;56857;52.212;5.496;2022-12-18T06:39:53;102790.03;;;-5.09;93.48
69630;BME280;56857;52.212;5.496;2022-12-18T06:42:22;102789.19;;;-5.09;93.36
69630;BME280;56857;52.212;5.496;2022-12-18T06:44:54;102792.66;;;-5.12;93.50
69630;BME280;56857;52.212;5.496;2022-12-18T06:47:34;102781.47;;;-5.13;93.44
69630;BME280;56857;52.212;5.496;2022-12-18T06:50:06;102786.66;;;-5.13;93.23
69630;BME280;56857;52.212;5.496;2022-12-18T06:52:40;102780.59;;;-5.12;93.07
69630;BME280;56857;52.212;5.496;2022-12-18T06:55:12;102776.31;;;-5.13;92.72
69630;BME280;56857;52.212;5.496;2022-12-18T06:57:52;102765.06;;;-5.12;92.76
69630;BME280;56857;52.212;5.496;2022-12-18T07:00:39;102759.91;;;-5.12;92.96
69630;BME280;56857;52.212;5.496;2022-12-18T07:03:05;102766.81;;;-5.10;92.69
69630;BME280;56857;52.212;5.496;2022-12-18T07:05:32;102762.50;;;-5.10;92.90
69630;BME280;56857;52.212;5.496;2022-12-18T07:08:04;102760.75;;;-5.11;92.51
69630;BME280;56857;52.212;5.496;2022-12-18T07:10:32;102759.91;;;-5.10;92.82
69630;BME280;56857;52.212;5.496;2022-12-18T07:13:05;102756.44;;;-5.07;92.74
69630;BME280;56857;52.212;5.496;2022-12-18T07:15:51;102756.38;;;-5.06;92.91
69630;BME280;56857;52.212;5.496;2022-12-18T07:18:44;102751.25;;;-5.09;92.55
69630;BME280;56857;52.212;5.496;2022-12-18T07:21:19;102757.38;;;-5.13;92.53
69630;BME280;56857;52.212;5.496;2022-12-18T07:24:28;102749.66;;;-5.16;92.83
69630;BME280;56857;52.212;5.496;2022-12-18T07:26:53;102755.66;;;-5.17;92.88
69630;BME280;56857;52.212;5.496;2022-12-18T07:29:24;102755.72;;;-5.19;92.67
69630;BME280;56857;52.212;5.496;2022-12-18T07:32:03;102750.50;;;-5.17;92.64
69630;BME280;56857;52.212;5.496;2022-12-18T07:34:40;102747.13;;;-5.22;92.38
69630;BME280;56857;52.212;5.496;2022-12-18T07:37:10;102740.31;;;-5.26;92.66
69630;BME280;56857;52.212;5.496;2022-12-18T07:39:47;102730.81;;;-5.27;92.86
69630;BME280;56857;52.212;5.496;2022-12-18T07:50:15;102716.88;;;-5.17;92.53
69630;BME280;56857;52.212;5.496;2022-12-18T07:53:03;102704.00;;;-5.19;92.69
69630;BME280;56857;52.212;5.496;2022-12-18T07:55:37;102697.94;;;-5.18;92.46
69630;BME280;56857;52.212;5.496;2022-12-18T07:58:05;102697.97;;;-5.19;92.47
69630;BME280;56857;52.212;5.496;2022-12-18T08:00:36;102699.72;;;-5.20;92.36
69630;BME280;56857;52.212;5.496;2022-12-18T08:03:22;102705.69;;;-5.18;92.88
69630;BME280;56857;52.212;5.496;2022-12-18T08:05:49;102703.09;;;-5.18;92.48
69630;BME280;56857;52.212;5.496;2022-12-18T08:08:19;102697.91;;;-5.15;92.55
69630;BME280;56857;52.212;5.496;2022-12-18T08:10:45;102698.75;;;-5.13;92.82
69630;BME280;56857;52.212;5.496;2022-12-18T08:13:21;102689.19;;;-5.09;93.09
69630;BME280;56857;52.212;5.496;2022-12-18T08:15:58;102679.69;;;-5.07;92.64
69630;BME280;56857;52.212;5.496;2022-12-18T08:18:27;102683.09;;;-5.03;92.88
69630;BME280;56857;52.212;5.496;2022-12-18T08:20:53;102687.31;;;-4.99;92.70
69630;BME280;56857;52.212;5.496;2022-12-18T08:23:21;102691.56;;;-4.95;92.86
69630;BME280;56857;52.212;5.496;2022-12-18T08:25:49;102688.91;;;-4.91;93.26
69630;BME280;56857;52.212;5.496;2022-12-18T08:28:18;102701.81;;;-4.87;93.51
69630;BME280;56857;52.212;5.496;2022-12-18T08:30:51;102700.84;;;-4.82;93.24
69630;BME280;56857;52.212;5.496;2022-12-18T08:33:17;102696.47;;;-4.78;93.42
69630;BME280;56857;52.212;5.496;2022-12-18T08:35:43;102704.19;;;-4.75;93.74
69630;BME280;56857;52.212;5.496;2022-12-18T08:38:13;102705.00;;;-4.72;93.57
69630;BME280;56857;52.212;5.496;2022-12-18T08:40:41;102708.38;;;-4.68;93.43
69630;BME280;56857;52.212;5.496;2022-12-18T08:43:09;102715.19;;;-4.64;93.63
69630;BME280;56857;52.212;5.496;2022-12-18T08:45:35;102720.31;;;-4.61;93.78
69630;BME280;56857;52.212;5.496;2022-12-18T08:48:01;102711.66;;;-4.57;93.44
69630;BME280;56857;52.212;5.496;2022-12-18T08:50:30;102709.00;;;-4.54;93.54
69630;BME280;56857;52.212;5.496;2022-12-18T08:52:57;102712.41;;;-4.52;93.77
69630;BME280;56857;52.212;5.496;2022-12-18T08:55:26;102709.78;;;-4.49;93.68
69630;BME280;56857;52.212;5.496;2022-12-18T08:57:51;102714.00;;;-4.45;93.63
69630;BME280;56857;52.212;5.496;2022-12-18T09:00:21;102719.13;;;-4.40;93.87
69630;BME280;56857;52.212;5.496;2022-12-18T09:03:15;102720.75;;;-4.34;93.71
69630;BME280;56857;52.212;5.496;2022-12-18T09:05:42;102724.94;;;-4.27;93.88
69630;BME280;56857;52.212;5.496;2022-12-18T09:08:08;102725.72;;;-4.22;93.72
69630;BME280;56857;52.212;5.496;2022-12-18T09:10:48;102704.00;;;-4.16;93.58
69630;BME280;56857;52.212;5.496;2022-12-18T09:13:15;102709.13;;;-4.12;93.59
69630;BME280;56857;52.212;5.496;2022-12-18T09:15:46;102699.53;;;-4.08;93.88
69630;BME280;56857;52.212;5.496;2022-12-18T09:18:13;102697.69;;;-4.02;93.70
69630;BME280;56857;52.212;5.496;2022-12-18T09:20:43;102696.78;;;-3.99;93.89
69630;BME280;56857;52.212;5.496;2022-12-18T09:23:12;102699.25;;;-3.94;93.43
69630;BME280;56857;52.212;5.496;2022-12-18T09:25:38;102701.78;;;-3.90;93.55
69630;BME280;56857;52.212;5.496;2022-12-18T09:28:12;102697.34;;;-3.85;93.49
69630;BME280;56857;52.212;5.496;2022-12-18T09:30:43;102701.59;;;-3.81;93.52
69630;BME280;56857;52.212;5.496;2022-12-18T09:33:10;102698.06;;;-3.77;93.64
69630;BME280;56857;52.212;5.496;2022-12-18T09:35:42;102692.81;;;-3.74;93.35
69630;BME280;56857;52.212;5.496;2022-12-18T09:38:13;102686.66;;;-3.69;93.53
69630;BME280;56857;52.212;5.496;2022-12-18T09:40:51;102687.44;;;-3.64;93.61
69630;BME280;56857;52.212;5.496;2022-12-18T09:43:21;102682.19;;;-3.63;93.56
69630;BME280;56857;52.212;5.496;2022-12-18T09:45:56;102684.72;;;-3.58;93.45
69630;BME280;56857;52.212;5.496;2022-12-18T09:48:34;102680.25;;;-3.52;93.13
69630;BME280;56857;52.212;5.496;2022-12-18T09:51:22;102668.06;;;-3.48;93.02
69630;BME280;56857;52.212;5.496;2022-12-18T09:54:01;102674.88;;;-3.44;93.15
69630;BME280;56857;52.212;5.496;2022-12-18T09:56:40;102677.41;;;-3.41;92.97
69630;BME280;56857;52.212;5.496;2022-12-18T09:59:17;102667.84;;;-3.37;92.84
69630;BME280;56857;52.212;5.496;2022-12-18T10:01:44;102650.47;;;-3.35;92.82
69630;BME280;56857;52.212;5.496;2022-12-18T10:04:10;102644.38;;;-3.33;93.12
69630;BME280;56857;52.212;5.496;2022-12-18T10:06:44;102639.06;;;-3.28;92.72
69630;BME280;56857;52.212;5.496;2022-12-18T10:09:28;102639.06;;;-3.27;92.57
69630;BME280;56857;52.212;5.496;2022-12-18T10:12:00;102648.47;;;-3.22;92.95
69630;BME280;56857;52.212;5.496;2022-12-18T10:14:36;102650.97;;;-3.18;92.70
69630;BME280;56857;52.212;5.496;2022-12-18T10:17:20;102656.91;;;-3.14;92.41
69630;BME280;56857;52.212;5.496;2022-12-18T10:27:41;102643.50;;;-2.96;92.82
69630;BME280;56857;52.212;5.496;2022-12-18T10:30:18;102634.75;;;-2.92;92.39
69630;BME280;56857;52.212;5.496;2022-12-18T10:32:45;102624.28;;;-2.89;92.64
69630;BME280;56857;52.212;5.496;2022-12-18T10:35:26;102624.22;;;-2.86;92.72
69630;BME280;56857;52.212;5.496;2022-12-18T10:41:02;102624.06;;;-2.80;92.49
69630;BME280;56857;52.212;5.496;2022-12-18T10:43:36;102621.38;;;-2.76;92.52
69630;BME280;56857;52.212;5.496;2022-12-18T10:48:33;102623.91;;;-2.73;92.27
69630;BME280;56857;52.212;5.496;2022-12-18T10:51:00;102630.72;;;-2.69;92.40
69630;BME280;56857;52.212;5.496;2022-12-18T10:53:28;102617.72;;;-2.68;92.38
69630;BME280;56857;52.212;5.496;2022-12-18T10:55:57;102616.75;;;-2.65;91.92
69630;BME280;56857;52.212;5.496;2022-12-18T10:58:29;102610.63;;;-2.63;91.88
69630;BME280;56857;52.212;5.496;2022-12-18T11:01:11;102608.78;;;-2.59;92.13
69630;BME280;56857;52.212;5.496;2022-12-18T11:03:46;102597.41;;;-2.53;91.72
69630;BME280;56857;52.212;5.496;2022-12-18T11:06:17;102600.84;;;-2.53;91.50
69630;BME280;56857;52.212;5.496;2022-12-18T11:09:03;102599.91;;;-2.50;91.65
69630;BME280;56857;52.212;5.496;2022-12-18T11:11:31;102594.63;;;-2.47;91.48
69630;BME280;56857;52.212;5.496;2022-12-18T11:14:11;102572.13;;;-2.47;91.28
69630;BME280;56857;52.212;5.496;2022-12-18T11:16:48;102565.94;;;-2.43;91.23
69630;BME280;56857;52.212;5.496;2022-12-18T11:22:01;102560.63;;;-2.38;90.47
69630;BME280;56857;52.212;5.496;2022-12-18T11:24:33;102557.97;;;-2.37;89.91
69630;BME280;56857;52.212;5.496;2022-12-18T11:27:02;102553.56;;;-2.33;89.63
69630;BME280;56857;52.212;5.496;2022-12-18T11:29:39;102556.91;;;-2.29;89.83
69630;BME280;56857;52.212;5.496;2022-12-18T11:34:44;102550.59;;;-2.21;89.52
69630;BME280;56857;52.212;5.496;2022-12-18T11:37:13;102545.28;;;-2.16;89.20
69630;BME280;56857;52.212;5.496;2022-12-18T11:39:52;102553.78;;;-2.11;89.46
69630;BME280;56857;52.212;5.496;2022-12-18T11:42:37;102556.19;;;-2.05;89.32
69630;BME280;56857;52.212;5.496;2022-12-18T11:47:42;102545.50;;;-1.96;89.57
69630;BME280;56857;52.212;5.496;2022-12-18T11:50:14;102548.06;;;-1.94;89.05
69630;BME280;56857;52.212;5.496;2022-12-18T11:52:41;102544.44;;;-1.89;88.92
69630;BME280;56857;52.212;5.496;2022-12-18T11:55:31;102544.28;;;-1.84;88.38
69630;BME280;56857;52.212;5.496;2022-12-18T11:58:19;102532.09;;;-1.82;88.24
69630;BME280;56857;52.212;5.496;2022-12-18T12:01:03;102527.69;;;-1.80;87.84
69630;BME280;56857;52.212;5.496;2022-12-18T12:03:55;102519.84;;;-1.78;87.82
69630;BME280;56857;52.212;5.496;2022-12-18T12:17:37;102495.25;;;-1.68;86.72
69630;BME280;56857;52.212;5.496;2022-12-18T12:26:02;102487.34;;;-1.65;86.43
69630;BME280;56857;52.212;5.496;2022-12-18T12:31:52;102475.16;;;-1.63;86.19
69630;BME280;56857;52.212;5.496;2022-12-18T12:34:53;102472.41;;;-1.58;86.00
69630;BME280;56857;52.212;5.496;2022-12-18T12:38:00;102479.25;;;-1.56;86.24
69630;BME280;56857;52.212;5.496;2022-12-18T12:40:31;102471.31;;;-1.51;85.90
69630;BME280;56857;52.212;5.496;2022-12-18T12:43:19;102467.75;;;-1.49;85.89
69630;BME280;56857;52.212;5.496;2022-12-18T12:48:20;102459.84;;;-1.46;85.68
69630;BME280;56857;52.212;5.496;2022-12-18T12:50:48;102452.00;;;-1.44;85.50
69630;BME280;56857;52.212;5.496;2022-12-18T12:53:38;102456.28;;;-1.43;85.44
69630;BME280;56857;52.212;5.496;2022-12-18T12:56:13;102444.94;;;-1.41;85.50
69630;BME280;56857;52.212;5.496;2022-12-18T12:59:23;102438.81;;;-1.40;85.28
69630;BME280;56857;52.212;5.496;2022-12-18T13:05:26;102438.06;;;-1.43;84.51
69630;BME280;56857;52.212;5.496;2022-12-18T13:08:28;102443.19;;;-1.40;84.87
69630;BME280;56857;52.212;5.496;2022-12-18T13:10:55;102441.38;;;-1.38;84.63
69630;BME280;56857;52.212;5.496;2022-12-18T13:13:22;102444.66;;;-1.33;84.75
69630;BME280;56857;52.212;5.496;2022-12-18T13:16:03;102442.00;;;-1.31;84.60
69630;BME280;56857;52.212;5.496;2022-12-18T13:18:31;102443.78;;;-1.32;84.29
69630;BME280;56857;52.212;5.496;2022-12-18T13:23:28;102441.09;;;-1.30;84.22
69630;BME280;56857;52.212;5.496;2022-12-18T13:31:11;102430.56;;;-1.26;83.98
69630;BME280;56857;52.212;5.496;2022-12-18T13:33:46;102433.03;;;-1.23;83.94
69630;BME280;56857;52.212;5.496;2022-12-18T13:36:53;102422.56;;;-1.21;84.05
69630;BME280;56857;52.212;5.496;2022-12-18T13:39:23;102426.84;;;-1.20;83.90
69630;BME280;56857;52.212;5.496;2022-12-18T13:44:41;102413.13;;;-1.24;83.43
69630;BME280;56857;52.212;5.496;2022-12-18T13:47:30;102405.28;;;-1.22;83.03
69630;BME280;56857;52.212;5.496;2022-12-18T13:49:57;102397.47;;;-1.22;83.27
69630;BME280;56857;52.212;5.496;2022-12-18T13:52:28;102385.34;;;-1.23;83.60
69630;BME280;56857;52.212;5.496;2022-12-18T13:55:00;102386.16;;;-1.21;83.43
69630;BME280;56857;52.212;5.496;2022-12-18T13:57:30;102382.69;;;-1.22;83.49
69630;BME280;56857;52.212;5.496;2022-12-18T13:59:57;102374.78;;;-1.19;83.43
69630;BME280;56857;52.212;5.496;2022-12-18T14:02:26;102373.03;;;-1.18;82.77
69630;BME280;56857;52.212;5.496;2022-12-18T14:04:55;102374.06;;;-1.22;82.58
69630;BME280;56857;52.212;5.496;2022-12-18T14:07:24;102374.09;;;-1.24;82.08
69630;BME280;56857;52.212;5.496;2022-12-18T14:12:26;102366.34;;;-1.25;82.65
69630;BME280;56857;52.212;5.496;2022-12-18T14:14:52;102366.25;;;-1.22;82.62
69630;BME280;56857;52.212;5.496;2022-12-18T14:17:19;102367.09;;;-1.22;82.67
69630;BME280;56857;52.212;5.496;2022-12-18T14:19:49;102353.16;;;-1.21;82.68
69630;BME280;56857;52.212;5.496;2022-12-18T14:22:24;102346.19;;;-1.20;82.42
69630;BME280;56857;52.212;5.496;2022-12-18T14:25:18;102341.91;;;-1.21;82.17
69630;BME280;56857;52.212;5.496;2022-12-18T14:27:48;102339.31;;;-1.21;82.87
69630;BME280;56857;52.212;5.496;2022-12-18T14:30:39;102338.47;;;-1.22;82.86
69630;BME280;56857;52.212;5.496;2022-12-18T14:33:13;102327.16;;;-1.21;82.49
69630;BME280;56857;52.212;5.496;2022-12-18T14:36:00;102324.50;;;-1.19;82.33
69630;BME280;56857;52.212;5.496;2022-12-18T14:38:37;102321.09;;;-1.21;82.42
69630;BME280;56857;52.212;5.496;2022-12-18T14:41:15;102321.09;;;-1.21;82.35
69630;BME280;56857;52.212;5.496;2022-12-18T14:43:47;102311.59;;;-1.22;82.42
69630;BME280;56857;52.212;5.496;2022-12-18T14:49:00;102321.22;;;-1.24;81.81
69630;BME280;56857;52.212;5.496;2022-12-18T14:51:30;102323.81;;;-1.24;81.66
69630;BME280;56857;52.212;5.496;2022-12-18T14:53:59;102306.41;;;-1.22;81.21
69630;BME280;56857;52.212;5.496;2022-12-18T14:56:44;102301.19;;;-1.22;81.16
69630;BME280;56857;52.212;5.496;2022-12-18T14:59:20;102303.78;;;-1.22;81.17
69630;BME280;56857;52.212;5.496;2022-12-18T15:04:41;102296.88;;;-1.23;80.53
69630;BME280;56857;52.212;5.496;2022-12-18T15:10:26;102303.94;;;-1.27;80.70
69630;BME280;56857;52.212;5.496;2022-12-18T15:18:04;102296.94;;;-1.25;80.35
69630;BME280;56857;52.212;5.496;2022-12-18T15:20:33;102299.44;;;-1.22;80.40
69630;BME280;56857;52.212;5.496;2022-12-18T15:23:36;102293.31;;;-1.21;80.15
69630;BME280;56857;52.212;5.496;2022-12-18T15:26:05;102288.91;;;-1.19;80.43
69630;BME280;56857;52.212;5.496;2022-12-18T15:28:55;102289.84;;;-1.20;80.64
69630;BME280;56857;52.212;5.496;2022-12-18T15:31:31;102288.00;;;-1.18;80.32
69630;BME280;56857;52.212;5.496;2022-12-18T15:36:23;102291.44;;;-1.17;79.95
69630;BME280;56857;52.212;5.496;2022-12-18T15:39:20;102289.75;;;-1.18;80.24
69630;BME280;56857;52.212;5.496;2022-12-18T15:41:56;102285.47;;;-1.19;80.33
69630;BME280;56857;52.212;5.496;2022-12-18T15:44:23;102291.50;;;-1.19;80.14
69630;BME280;56857;52.212;5.496;2022-12-18T15:46:50;102301.97;;;-1.20;80.14
69630;BME280;56857;52.212;5.496;2022-12-18T15:49:16;102287.22;;;-1.20;80.31
69630;BME280;56857;52.212;5.496;2022-12-18T15:51:43;102290.00;;;-1.24;80.43
69630;BME280;56857;52.212;5.496;2022-12-18T15:54:11;102293.38;;;-1.22;80.34
69630;BME280;56857;52.212;5.496;2022-12-18T15:56:42;102282.97;;;-1.22;80.46
69630;BME280;56857;52.212;5.496;2022-12-18T15:59:14;102282.06;;;-1.21;80.32
69630;BME280;56857;52.212;5.496;2022-12-18T16:01:47;102273.34;;;-1.20;80.57
69630;BME280;56857;52.212;5.496;2022-12-18T16:05:14;102258.59;;;-1.20;80.21
69630;BME280;56857;52.212;5.496;2022-12-18T16:07:40;102266.31;;;-1.17;79.97
69630;BME280;56857;52.212;5.496;2022-12-18T16:10:09;102247.28;;;-1.19;79.98
69630;BME280;56857;52.212;5.496;2022-12-18T16:12:36;102240.31;;;-1.18;79.99